createdAt,value
2018-10-17T00:01:17.640Z,101480.81
2018-10-17T00:03:45.922Z,101479.64
2018-10-17T00:06:14.231Z,101478.19
2018-10-17T00:08:42.623Z,101473.50
2018-10-17T00:11:11.086Z,101476.19
2018-10-17T00:13:39.379Z,101478.22
2018-10-17T00:16:07.719Z,101476.95
2018-10-17T00:18:36.256Z,101473.45
2018-10-17T00:21:05.294Z,101478.00
2018-10-17T00:23:33.995Z,101476.71
2018-10-17T00:26:02.592Z,101477.63
2018-10-17T00:28:30.927Z,101475.48
2018-10-17T00:30:59.304Z,101486.00
2018-10-17T00:33:27.601Z,101489.23
2018-10-17T00:35:55.912Z,101480.97
2018-10-17T00:38:24.258Z,101479.12
2018-10-17T00:40:52.617Z,101474.62
2018-10-17T00:43:20.915Z,101476.47
2018-10-17T00:45:49.251Z,101480.17
2018-10-17T00:48:17.612Z,101474.42
2018-10-17T00:50:45.947Z,101474.59
2018-10-17T00:53:14.441Z,101471.91
2018-10-17T00:55:42.746Z,101473.19
2018-10-17T00:58:11.222Z,101465.59
2018-10-17T01:00:39.603Z,101466.17
2018-10-17T01:03:07.918Z,101467.04
2018-10-17T01:05:36.255Z,101468.56
2018-10-17T01:08:04.754Z,101473.13
2018-10-17T01:10:33.548Z,101469.20
2018-10-17T01:13:02.226Z,101470.05
2018-10-17T01:15:30.564Z,101465.92
2018-10-17T01:17:58.886Z,101463.73
2018-10-17T01:20:27.235Z,101460.44
2018-10-17T01:22:55.555Z,101460.95
2018-10-17T01:25:23.906Z,101455.67
2018-10-17T01:27:52.250Z,101458.94
2018-10-17T01:30:20.569Z,101453.73
2018-10-17T01:32:48.890Z,101456.31
2018-10-17T01:35:17.251Z,101462.23
2018-10-17T01:37:45.555Z,101462.80
2018-10-17T01:40:13.876Z,101468.64
2018-10-17T01:42:42.217Z,101472.95
2018-10-17T01:45:10.701Z,101471.30
2018-10-17T01:47:39.034Z,101471.60
2018-10-17T01:50:07.988Z,101476.51
2018-10-17T01:52:36.303Z,101472.41
2018-10-17T01:55:05.305Z,101472.48
2018-10-17T01:57:33.574Z,101472.48
2018-10-17T02:00:01.924Z,101468.84
2018-10-17T02:02:30.239Z,101465.39
2018-10-17T02:04:58.563Z,101468.14
2018-10-17T02:07:26.882Z,101468.08
2018-10-17T02:09:55.194Z,101471.36
2018-10-17T02:12:23.511Z,101461.49
2018-10-17T02:14:51.891Z,101461.89
2018-10-17T02:17:20.209Z,101458.41
2018-10-17T02:19:48.539Z,101462.62
2018-10-17T02:22:16.858Z,101465.22
2018-10-17T02:24:45.190Z,101459.34
2018-10-17T02:27:13.510Z,101454.88
2018-10-17T02:29:41.833Z,101456.45
2018-10-17T02:32:10.135Z,101453.77
2018-10-17T02:34:43.794Z,101459.64
2018-10-17T02:37:12.181Z,101461.92
2018-10-17T02:39:40.452Z,101458.22
2018-10-17T02:42:08.784Z,101453.75
2018-10-17T02:44:37.103Z,101455.16
2018-10-17T02:47:05.639Z,101458.09
2018-10-17T02:49:33.908Z,101464.56
2018-10-17T02:52:02.236Z,101467.59
2018-10-17T02:54:30.561Z,101469.56
2018-10-17T02:56:58.884Z,101467.87
2018-10-17T02:59:27.220Z,101468.19
2018-10-17T03:01:55.547Z,101469.72
2018-10-17T03:04:23.884Z,101461.80
2018-10-17T03:06:52.256Z,101460.38
2018-10-17T03:09:20.593Z,101462.20
2018-10-17T03:11:48.920Z,101461.73
2018-10-17T03:14:17.500Z,101461.97
2018-10-17T03:16:45.831Z,101460.08
2018-10-17T03:19:14.277Z,101457.17
2018-10-17T03:21:42.505Z,101459.86
2018-10-17T03:24:10.842Z,101457.08
2018-10-17T03:26:39.183Z,101459.14
2018-10-17T03:29:07.638Z,101466.16
2018-10-17T03:31:36.012Z,101473.09
2018-10-17T03:34:04.240Z,101467.97
2018-10-17T03:36:32.577Z,101470.72
2018-10-17T03:39:01.571Z,101472.47
2018-10-17T03:41:29.893Z,101473.44
2018-10-17T03:43:58.228Z,101473.41
2018-10-17T03:46:26.544Z,101464.60
2018-10-17T03:48:54.916Z,101470.19
2018-10-17T03:51:23.246Z,101470.91
2018-10-17T03:53:51.577Z,101473.59
2018-10-17T03:56:19.918Z,101474.63
2018-10-17T03:58:48.219Z,101471.94
2018-10-17T04:01:16.601Z,101471.63
2018-10-17T04:03:44.890Z,101474.25
2018-10-17T04:06:13.214Z,101481.83
2018-10-17T04:08:41.543Z,101483.08
2018-10-17T04:11:09.950Z,101478.44
2018-10-17T04:13:38.268Z,101476.06
2018-10-17T04:16:06.616Z,101475.44
2018-10-17T04:18:34.951Z,101483.55
2018-10-17T04:21:03.294Z,101483.48
2018-10-17T04:23:31.608Z,101489.30
2018-10-17T04:25:59.980Z,101496.66
2018-10-17T04:28:28.287Z,101493.72
2018-10-17T04:30:56.683Z,101495.31
2018-10-17T04:33:24.975Z,101493.56
2018-10-17T04:35:53.300Z,101495.78
2018-10-17T04:38:21.614Z,101490.19
2018-10-17T04:40:49.961Z,101494.39
2018-10-17T04:43:18.423Z,101494.70
2018-10-17T04:45:46.682Z,101496.98
2018-10-17T04:48:15.013Z,101498.24
2018-10-17T04:50:43.381Z,101499.20
2018-10-17T04:53:11.725Z,101507.23
2018-10-17T04:55:40.068Z,101505.04
2018-10-17T04:58:08.409Z,101504.57
2018-10-17T05:00:36.734Z,101508.97
2018-10-17T05:03:05.506Z,101504.10
2018-10-17T05:05:33.852Z,101498.24
2018-10-17T05:08:02.228Z,101500.77
2018-10-17T05:10:30.696Z,101506.92
2018-10-17T05:12:59.061Z,101504.16
2018-10-17T05:15:27.374Z,101508.13
2018-10-17T05:17:55.695Z,101507.78
2018-10-17T05:20:24.031Z,101509.62
2018-10-17T05:22:52.419Z,101508.25
2018-10-17T05:25:20.733Z,101511.66
2018-10-17T05:27:49.128Z,101519.69
2018-10-17T05:30:17.481Z,101513.06
2018-10-17T05:32:45.803Z,101506.67
2018-10-17T05:35:14.186Z,101507.31
2018-10-17T05:37:42.527Z,101510.17
2018-10-17T05:40:10.891Z,101511.34
2018-10-17T05:42:39.233Z,101512.77
2018-10-17T05:45:08.217Z,101515.92
2018-10-17T05:47:36.569Z,101518.86
2018-10-17T05:50:05.018Z,101526.59
2018-10-17T05:52:33.357Z,101528.25
2018-10-17T05:55:01.720Z,101524.58
2018-10-17T05:57:30.064Z,101531.64
2018-10-17T05:59:58.423Z,101529.33
2018-10-17T06:02:29.171Z,101531.29
2018-10-17T06:04:57.509Z,101530.70
2018-10-17T06:07:25.861Z,101534.64
2018-10-17T06:09:54.185Z,101544.88
2018-10-17T06:12:22.514Z,101537.41
2018-10-17T06:14:50.842Z,101539.13
2018-10-17T06:17:19.274Z,101539.39
2018-10-17T06:19:47.548Z,101542.14
2018-10-17T06:22:15.872Z,101543.86
2018-10-17T06:24:44.199Z,101542.45
2018-10-17T06:27:12.734Z,101550.20
2018-10-17T06:29:41.187Z,101553.20
2018-10-17T06:32:09.539Z,101549.94
2018-10-17T06:34:38.171Z,101560.05
2018-10-17T06:37:06.796Z,101553.42
2018-10-17T06:39:35.011Z,101554.86
2018-10-17T06:42:03.508Z,101556.49
2018-10-17T06:44:31.855Z,101556.74
2018-10-17T06:47:00.228Z,101554.78
2018-10-17T06:49:28.540Z,101552.00
2018-10-17T06:51:56.873Z,101556.72
2018-10-17T06:54:25.354Z,101558.67
2018-10-17T06:56:53.614Z,101557.80
2018-10-17T06:59:21.951Z,101552.34
2018-10-17T07:01:50.344Z,101551.95
2018-10-17T07:04:18.651Z,101553.16
2018-10-17T07:06:46.980Z,101554.31
2018-10-17T07:09:15.310Z,101550.59
2018-10-17T07:11:43.657Z,101546.86
2018-10-17T07:14:11.994Z,101548.98
2018-10-17T07:16:40.320Z,101551.50
2018-10-17T07:19:08.701Z,101550.22
2018-10-17T07:21:37.030Z,101551.66
2018-10-17T07:24:05.364Z,101545.43
2018-10-17T07:26:33.687Z,101545.73
2018-10-17T07:29:02.052Z,101551.94
2018-10-17T07:31:30.409Z,101556.08
2018-10-17T07:33:58.764Z,101557.84
2018-10-17T07:36:27.100Z,101554.04
2018-10-17T07:38:55.423Z,101553.17
2018-10-17T07:41:23.756Z,101550.23
2018-10-17T07:43:52.076Z,101546.34
2018-10-17T07:46:20.417Z,101540.83
2018-10-17T07:48:48.761Z,101546.48
2018-10-17T07:51:17.119Z,101542.58
2018-10-17T07:53:45.471Z,101541.41
2018-10-17T07:56:13.859Z,101535.59
2018-10-17T07:58:42.240Z,101535.79
2018-10-17T08:01:10.573Z,101535.63
2018-10-17T08:03:38.896Z,101534.02
2018-10-17T08:06:07.258Z,101534.44
2018-10-17T08:08:35.599Z,101536.12
2018-10-17T08:11:03.971Z,101540.39
2018-10-17T08:13:32.312Z,101529.19
2018-10-17T08:16:00.646Z,101531.05
2018-10-17T08:18:29.039Z,101530.73
2018-10-17T08:20:57.372Z,101526.38
2018-10-17T08:23:25.693Z,101524.87
2018-10-17T08:25:54.039Z,101527.70
2018-10-17T08:28:22.382Z,101520.34
2018-10-17T08:30:50.726Z,101519.70
2018-10-17T08:33:19.045Z,101526.38
2018-10-17T08:35:47.505Z,101526.57
2018-10-17T08:38:15.728Z,101522.13
2018-10-17T08:40:44.082Z,101523.33
2018-10-17T08:43:12.426Z,101527.81
2018-10-17T08:45:40.745Z,101523.70
2018-10-17T08:48:09.080Z,101521.59
2018-10-17T08:50:37.434Z,101516.02
2018-10-17T08:53:05.767Z,101522.67
2018-10-17T08:55:34.103Z,101522.52
2018-10-17T08:58:02.814Z,101522.00
2018-10-17T09:00:31.100Z,101528.10
2018-10-17T09:02:59.455Z,101529.13
2018-10-17T09:05:27.960Z,101527.69
2018-10-17T09:07:56.352Z,101528.42
2018-10-17T09:10:24.654Z,101524.67
2018-10-17T09:12:52.973Z,101523.58
2018-10-17T09:15:21.288Z,101528.62
2018-10-17T09:17:49.712Z,101527.84
2018-10-17T09:20:18.359Z,101518.05
2018-10-17T09:22:46.379Z,101520.66
2018-10-17T09:25:14.748Z,101516.17
2018-10-17T09:27:43.064Z,101520.89
2018-10-17T09:30:12.341Z,101515.95
2018-10-17T09:32:40.777Z,101509.39
2018-10-17T09:35:10.302Z,101507.11
2018-10-17T09:37:38.608Z,101511.77
2018-10-17T09:40:08.089Z,101510.61
2018-10-17T09:42:36.387Z,101509.27
2018-10-17T09:45:04.972Z,101507.87
2018-10-17T09:47:33.315Z,101509.04
2018-10-17T09:50:01.639Z,101501.70
2018-10-17T09:52:29.973Z,101500.45
2018-10-17T09:54:59.124Z,101511.80
2018-10-17T09:57:27.453Z,101509.91
2018-10-17T09:59:56.050Z,101505.36
2018-10-17T10:02:24.495Z,101508.95
2018-10-17T10:04:52.721Z,101504.69
2018-10-17T10:07:21.031Z,101506.67
2018-10-17T10:09:49.386Z,101501.20
2018-10-17T10:12:17.804Z,101506.91
2018-10-17T10:14:46.677Z,101501.16
2018-10-17T10:17:15.201Z,101499.18
2018-10-17T10:19:43.613Z,101506.19
2018-10-17T10:22:12.045Z,101497.92
2018-10-17T10:24:40.326Z,101497.38
2018-10-17T10:27:08.725Z,101488.39
2018-10-17T10:29:37.134Z,101489.12
2018-10-17T10:32:05.475Z,101481.84
2018-10-17T10:34:33.816Z,101480.59
2018-10-17T10:37:02.179Z,101481.86
2018-10-17T10:39:30.496Z,101485.20
2018-10-17T10:41:58.888Z,101478.79
2018-10-17T10:44:27.446Z,101477.19
2018-10-17T10:46:55.817Z,101477.69
2018-10-17T10:49:24.158Z,101468.36
2018-10-17T10:53:16.920Z,101473.16
2018-10-17T10:55:45.279Z,101464.13
2018-10-17T10:58:13.632Z,101468.30
2018-10-17T11:00:41.962Z,101462.33
2018-10-17T11:03:10.340Z,101460.06
2018-10-17T11:05:38.827Z,101452.84
2018-10-17T11:08:07.240Z,101457.70
2018-10-17T11:10:35.527Z,101454.42
2018-10-17T11:13:03.855Z,101453.72
2018-10-17T11:15:32.187Z,101459.98
2018-10-17T11:18:00.507Z,101457.16
2018-10-17T11:20:28.819Z,101456.39
2018-10-17T11:22:57.258Z,101451.18
2018-10-17T11:25:25.619Z,101456.14
2018-10-17T11:27:53.953Z,101453.75
2018-10-17T11:30:22.315Z,101452.17
2018-10-17T11:32:50.665Z,101457.48
2018-10-17T11:35:19.089Z,101452.88
2018-10-17T11:37:47.405Z,101455.20
2018-10-17T11:40:15.837Z,101454.69
2018-10-17T11:42:44.153Z,101455.67
2018-10-17T11:45:12.542Z,101453.00
2018-10-17T11:47:40.893Z,101456.11
2018-10-17T11:50:10.096Z,101450.14
2018-10-17T11:52:38.759Z,101447.45
2018-10-17T11:55:07.254Z,101443.39
2018-10-17T11:57:35.697Z,101443.15
2018-10-17T12:00:04.489Z,101444.80
2018-10-17T12:02:32.843Z,101439.98
2018-10-17T12:05:01.385Z,101435.44
2018-10-17T12:07:29.537Z,101429.80
2018-10-17T12:09:57.869Z,101433.30
2018-10-17T12:12:26.300Z,101436.34
2018-10-17T12:14:54.601Z,101437.63
2018-10-17T12:17:22.988Z,101434.76
2018-10-17T12:19:51.449Z,101430.89
2018-10-17T12:22:19.729Z,101427.08
2018-10-17T12:24:48.102Z,101425.99
2018-10-17T12:27:16.508Z,101421.65
2018-10-17T12:29:44.855Z,101420.91
2018-10-17T12:32:13.210Z,101423.48
2018-10-17T12:34:41.544Z,101426.42
2018-10-17T12:37:09.911Z,101422.65
2018-10-17T12:39:38.388Z,101424.17
2018-10-17T12:42:06.693Z,101421.66
2018-10-17T12:44:35.033Z,101419.95
2018-10-17T12:47:03.426Z,101412.86
2018-10-17T12:49:31.808Z,101418.09
2018-10-17T12:52:00.204Z,101412.13
2018-10-17T12:54:28.524Z,101415.00
2018-10-17T12:56:56.867Z,101414.38
2018-10-17T12:59:25.184Z,101412.28
2018-10-17T13:01:53.525Z,101410.79
2018-10-17T13:04:21.870Z,101411.28
2018-10-17T13:06:50.207Z,101413.14
2018-10-17T13:09:18.559Z,101409.77
2018-10-17T13:11:46.869Z,101405.47
2018-10-17T13:14:15.204Z,101408.56
2018-10-17T13:16:43.525Z,101403.73
2018-10-17T13:19:11.911Z,101399.64
2018-10-17T13:21:40.289Z,101405.47
2018-10-17T13:24:08.611Z,101409.77
2018-10-17T13:26:36.940Z,101409.40
2018-10-17T13:29:06.137Z,101406.17
2018-10-17T13:31:34.501Z,101413.98
2018-10-17T13:34:02.879Z,101404.81
2018-10-17T13:36:31.205Z,101403.45
2018-10-17T13:38:59.536Z,101399.42
2018-10-17T13:41:27.884Z,101398.34
2018-10-17T13:43:56.208Z,101406.89
2018-10-17T13:46:24.555Z,101399.34
2018-10-17T13:48:52.941Z,101389.86
2018-10-17T13:51:21.267Z,101395.47
2018-10-17T13:53:49.604Z,101395.31
2018-10-17T13:56:17.995Z,101403.70
2018-10-17T13:58:46.337Z,101401.28
2018-10-17T14:01:14.686Z,101400.04
2018-10-17T14:03:43.004Z,101395.55
2018-10-17T14:06:11.410Z,101395.46
2018-10-17T14:08:39.725Z,101394.44
2018-10-17T14:11:08.813Z,101391.71
2018-10-17T14:13:37.167Z,101391.80
2018-10-17T14:16:05.929Z,101388.21
2018-10-17T14:18:34.279Z,101384.91
2018-10-17T14:21:02.651Z,101389.20
2018-10-17T14:23:31.130Z,101394.12
2018-10-17T14:25:59.370Z,101389.75
2018-10-17T14:28:27.706Z,101388.52
2018-10-17T14:30:56.026Z,101394.55
2018-10-17T14:33:24.580Z,101401.84
2018-10-17T14:35:52.949Z,101401.69
2018-10-17T14:38:21.495Z,101400.83
2018-10-17T14:40:50.592Z,101399.34
2018-10-17T14:43:18.972Z,101401.69
2018-10-17T14:45:47.329Z,101405.49
2018-10-17T14:48:15.747Z,101405.70
2018-10-17T14:50:44.039Z,101405.82
2018-10-17T14:53:12.507Z,101406.90
2018-10-17T14:55:40.777Z,101410.36
2018-10-17T14:58:09.119Z,101408.02
2018-10-17T15:00:38.273Z,101407.73
2018-10-17T15:03:06.675Z,101407.31
2018-10-17T15:05:35.011Z,101414.81
2018-10-17T15:08:03.380Z,101410.45
2018-10-17T15:10:32.034Z,101410.56
2018-10-17T15:13:00.317Z,101404.95
2018-10-17T15:15:28.657Z,101411.97
2018-10-17T15:17:57.041Z,101412.17
2018-10-17T15:20:25.353Z,101408.30
2018-10-17T15:22:53.691Z,101410.09
2018-10-17T15:25:22.028Z,101412.91
2018-10-17T15:27:50.382Z,101411.00
2018-10-17T15:30:18.865Z,101416.65
2018-10-17T15:32:47.102Z,101413.72
2018-10-17T15:35:15.431Z,101419.48
2018-10-17T15:37:43.780Z,101418.94
2018-10-17T15:40:12.114Z,101416.04
2018-10-17T15:42:40.457Z,101417.22
2018-10-17T15:45:08.860Z,101418.78
2018-10-17T15:47:37.152Z,101418.34
2018-10-17T15:50:05.674Z,101417.27
2018-10-17T15:52:34.008Z,101421.40
2018-10-17T15:55:02.354Z,101428.59
2018-10-17T15:57:30.743Z,101431.14
2018-10-17T15:59:59.167Z,101429.16
2018-10-17T16:02:27.785Z,101427.20
2018-10-17T16:04:56.142Z,101428.19
2018-10-17T16:07:24.484Z,101427.32
2018-10-17T16:09:53.667Z,101435.09
2018-10-17T16:12:22.399Z,101434.59
2018-10-17T16:14:50.746Z,101432.19
2018-10-17T16:17:19.494Z,101429.27
2018-10-17T16:19:47.825Z,101439.16
2018-10-17T16:22:16.162Z,101434.13
2018-10-17T16:24:44.561Z,101437.78
2018-10-17T16:27:12.874Z,101439.42
2018-10-17T16:29:41.222Z,101436.24
2018-10-17T16:32:09.653Z,101441.86
2018-10-17T16:34:37.957Z,101437.56
2018-10-17T16:37:06.301Z,101435.52
2018-10-17T16:39:34.656Z,101435.43
2018-10-17T16:42:03.043Z,101434.84
2018-10-17T16:44:31.396Z,101445.00
2018-10-17T16:47:00.434Z,101443.63
2018-10-17T16:49:28.891Z,101451.11
2018-10-17T16:51:57.329Z,101452.53
2018-10-17T16:54:25.814Z,101453.89
2018-10-17T16:56:54.138Z,101452.71
2018-10-17T16:59:22.467Z,101462.75
2018-10-17T17:01:50.892Z,101467.16
2018-10-17T17:04:19.350Z,101469.66
2018-10-17T17:06:47.815Z,101468.69
2018-10-17T17:09:16.254Z,101467.81
2018-10-17T17:11:44.504Z,101480.39
2018-10-17T17:14:12.840Z,101482.28
2018-10-17T17:16:41.163Z,101473.19
2018-10-17T17:19:09.504Z,101482.45
2018-10-17T17:21:37.843Z,101479.78
2018-10-17T17:24:06.218Z,101481.84
2018-10-17T17:26:34.666Z,101483.56
2018-10-17T17:29:03.003Z,101482.28
2018-10-17T17:31:31.340Z,101474.51
2018-10-17T17:33:59.677Z,101478.89
2018-10-17T17:36:28.143Z,101482.89
2018-10-17T17:38:56.418Z,101485.98
2018-10-17T17:41:25.130Z,101484.11
2018-10-17T17:43:53.631Z,101482.02
2018-10-17T17:46:22.029Z,101479.81
2018-10-17T17:48:50.795Z,101476.97
2018-10-17T17:51:19.270Z,101477.38
2018-10-17T17:53:47.597Z,101474.02
2018-10-17T17:56:16.003Z,101477.46
2018-10-17T17:58:44.357Z,101478.58
2018-10-17T18:01:12.699Z,101471.20
2018-10-17T18:03:41.040Z,101474.05
2018-10-17T18:06:09.486Z,101479.47
2018-10-17T18:08:37.826Z,101476.86
2018-10-17T18:11:18.572Z,101479.38
2018-10-17T18:13:46.928Z,101482.95
2018-10-17T18:16:15.476Z,101486.48
2018-10-17T18:18:44.270Z,101482.66
2018-10-17T18:21:12.649Z,101482.58
2018-10-17T18:23:41.417Z,101475.09
2018-10-17T18:26:10.104Z,101478.67
2018-10-17T18:28:38.537Z,101478.52
2018-10-17T18:31:06.840Z,101481.08
2018-10-17T18:33:35.173Z,101485.52
2018-10-17T18:36:03.698Z,101482.19
2018-10-17T18:38:32.055Z,101484.91
2018-10-17T18:41:00.438Z,101482.98
2018-10-17T18:43:28.772Z,101490.94
2018-10-17T18:45:57.430Z,101486.02
2018-10-17T18:48:26.039Z,101489.73
2018-10-17T18:50:54.461Z,101491.80
2018-10-17T18:53:22.890Z,101494.50
2018-10-17T18:55:51.822Z,101497.80
2018-10-17T18:58:20.069Z,101496.95
2018-10-17T19:00:48.475Z,101496.95
2018-10-17T19:03:16.869Z,101500.36
2018-10-17T19:05:45.771Z,101500.01
2018-10-17T19:08:14.286Z,101494.75
2018-10-17T19:10:42.788Z,101501.81
2018-10-17T19:13:11.377Z,101495.06
2018-10-17T19:15:39.768Z,101497.08
2018-10-17T19:18:08.670Z,101502.62
2018-10-17T19:20:37.021Z,101504.45
2018-10-17T19:23:05.938Z,101508.02
2018-10-17T19:25:34.309Z,101504.03
2018-10-17T19:28:02.664Z,101508.86
2018-10-17T19:30:31.590Z,101506.64
2018-10-17T19:32:59.960Z,101511.17
2018-10-17T19:35:28.380Z,101509.82
2018-10-17T19:37:56.725Z,101521.23
2018-10-17T19:40:25.103Z,101516.80
2018-10-17T19:42:53.471Z,101522.41
2018-10-17T19:45:21.808Z,101526.55
2018-10-17T19:47:50.164Z,101520.16
2018-10-17T19:50:19.138Z,101519.63
2018-10-17T19:52:47.483Z,101526.43
2018-10-17T19:55:16.720Z,101519.07
2018-10-17T19:57:45.091Z,101526.38
2018-10-17T20:00:14.460Z,101521.72
2018-10-17T20:02:43.465Z,101529.08
2018-10-17T20:05:12.244Z,101532.98
2018-10-17T20:07:41.194Z,101521.06
2018-10-17T20:10:09.737Z,101528.59
2018-10-17T20:12:38.129Z,101522.06
2018-10-17T20:15:07.017Z,101517.06
2018-10-17T20:17:35.530Z,101522.98
2018-10-17T20:20:04.139Z,101518.20
2018-10-17T20:22:32.497Z,101519.50
2018-10-17T20:25:00.904Z,101521.45
2018-10-17T20:27:29.363Z,101520.98
2018-10-17T20:29:57.709Z,101524.57
2018-10-17T20:32:26.132Z,101523.06
2018-10-17T20:34:54.563Z,101517.35
2018-10-17T20:37:22.927Z,101524.91
2018-10-17T20:39:51.294Z,101523.88
2018-10-17T20:42:19.687Z,101523.29
2018-10-17T20:44:48.037Z,101522.55
2018-10-17T20:47:16.368Z,101523.33
2018-10-17T20:49:44.696Z,101522.06
2018-10-17T20:52:13.698Z,101519.91
2018-10-17T20:54:42.078Z,101523.00
2018-10-17T20:57:10.425Z,101517.25
2018-10-17T20:59:38.744Z,101517.89
2018-10-17T21:02:07.122Z,101517.69
2018-10-17T21:04:35.461Z,101512.94
2018-10-17T21:07:03.805Z,101512.50
2018-10-17T21:09:32.159Z,101508.18
2018-10-17T21:12:00.515Z,101513.09
2018-10-17T21:14:29.034Z,101510.52
2018-10-17T21:16:57.391Z,101515.09
2018-10-17T21:19:25.732Z,101523.22
2018-10-17T21:21:54.091Z,101515.02
2018-10-17T21:24:22.442Z,101519.05
2018-10-17T21:26:50.827Z,101524.17
2018-10-17T21:29:19.183Z,101516.56
2018-10-17T21:31:47.544Z,101523.57
2018-10-17T21:34:15.869Z,101527.77
2018-10-17T21:36:44.223Z,101525.91
2018-10-17T21:39:13.927Z,101526.43
2018-10-17T21:41:42.609Z,101518.90
2018-10-17T21:44:11.688Z,101528.76
2018-10-17T21:46:40.475Z,101524.39
2018-10-17T21:49:09.692Z,101515.56
2018-10-17T21:58:38.499Z,101519.08
2018-10-17T22:01:06.849Z,101518.39
2018-10-17T22:03:35.191Z,101519.67
2018-10-17T22:06:03.533Z,101524.23
2018-10-17T22:08:31.868Z,101518.56
2018-10-17T22:11:00.191Z,101506.75
2018-10-17T22:13:28.494Z,101507.40
2018-10-17T22:15:56.846Z,101502.60
2018-10-17T22:18:25.193Z,101511.16
2018-10-17T22:20:54.117Z,101518.88
2018-10-17T22:23:22.449Z,101512.55
2018-10-17T22:25:50.776Z,101514.44
2018-10-17T22:28:19.138Z,101514.73
2018-10-17T22:30:47.465Z,101514.54
2018-10-17T22:33:15.808Z,101511.20
2018-10-17T22:35:44.122Z,101518.18
2018-10-17T22:38:12.522Z,101512.84
2018-10-17T22:40:40.826Z,101512.69
2018-10-17T22:43:09.189Z,101511.75
2018-10-17T22:45:37.705Z,101521.75
2018-10-17T22:48:06.115Z,101520.19
2018-10-17T22:50:34.457Z,101529.02
2018-10-17T22:53:02.787Z,101528.25
2018-10-17T22:55:31.120Z,101530.69
2018-10-17T22:57:59.447Z,101529.31
2018-10-17T23:00:27.792Z,101531.86
2018-10-17T23:02:56.120Z,101528.58
2018-10-17T23:05:24.469Z,101527.20
2018-10-17T23:07:52.801Z,101525.27
2018-10-17T23:10:21.116Z,101522.58
2018-10-17T23:12:49.464Z,101517.71
2018-10-17T23:15:17.790Z,101511.53
2018-10-17T23:17:46.116Z,101509.89
2018-10-17T23:20:14.554Z,101510.88
2018-10-17T23:22:42.813Z,101511.81
2018-10-17T23:25:12.014Z,101511.05
2018-10-17T23:27:40.909Z,101512.91
2018-10-17T23:30:10.293Z,101510.93
2018-10-17T23:32:39.596Z,101515.30
2018-10-17T23:35:07.922Z,101511.34
2018-10-17T23:37:36.561Z,101508.72
2018-10-17T23:40:05.524Z,101509.62
2018-10-17T23:42:33.921Z,101506.12
2018-10-17T23:45:02.219Z,101508.27
2018-10-17T23:47:30.691Z,101502.78
2018-10-17T23:49:59.080Z,101505.00
2018-10-17T23:52:27.393Z,101507.39
2018-10-17T23:54:55.728Z,101509.20
2018-10-17T23:57:24.080Z,101508.03
2018-10-17T23:59:52.449Z,101506.29
